Time;durP1;ratioP1;P1;durP2;ratioP2;P2;SDS_P1;SDS_P2;PMS_P1;PMS_P2;Temp;Humidity;BMP_temperature;BMP_pressure;BME280_temperature;BME280_humidity;BME280_pressure;Samples;Min_cycle;Max_cycle;Signal;HPM_P1;HPM_P2
2022/09/04 00:02:49;;;;;;;30.50;23.45;;;;;;;23.70;65.66;101309.44;5005433;28;20120;-79
2022/09/04 00:05:22;;;;;;;28.30;22.58;;;;;;;23.63;65.84;101307.53;4991238;28;20042;-80
2022/09/04 00:08:18;;;;;;;23.92;16.20;;;;;;;23.59;65.46;101309.00;5005655;28;20049;-79
2022/09/04 00:11:03;;;;;;;26.27;15.60;;;;;;;23.29;65.09;101253.47;5006429;28;20252;-80
2022/09/04 00:13:45;;;;;;;17.23;12.80;;;;;;;23.63;64.83;101315.66;5005197;28;20160;-80
2022/09/04 00:16:14;;;;;;;;;;;;;;;23.53;64.89;101315.22;4989566;28;20108;-79
2022/09/04 00:18:48;;;;;;;12.57;11.32;;;;;;;22.84;64.45;101205.19;5008200;28;19999;-79
2022/09/04 00:21:32;;;;;;;13.70;9.23;;;;;;;23.50;64.65;101318.34;5010308;28;20060;-79
2022/09/04 00:24:06;;;;;;;15.13;8.95;;;;;;;23.25;64.25;101274.72;5009397;28;20136;-79
2022/09/04 00:27:13;;;;;;;14.98;8.63;;;;;;;23.16;64.00;101263.25;5009180;28;20144;-79
2022/09/04 00:29:44;;;;;;;9.25;7.60;;;;;;;23.48;64.21;101319.59;4992977;28;20057;-79
2022/09/04 00:33:01;;;;;;;12.68;8.73;;;;;;;23.42;64.57;101321.22;5009165;28;20517;-79
2022/09/04 00:35:54;;;;;;;10.20;8.95;;;;;;;23.28;64.37;101308.69;4952199;28;20043;-79
2022/09/04 00:38:27;;;;;;;17.33;8.80;;;;;;;23.33;64.64;101317.88;4998279;28;20145;-80
2022/09/04 00:41:12;;;;;;;10.35;8.18;;;;;;;23.35;64.85;101320.38;5008118;28;20038;-79
2022/09/04 00:43:57;;;;;;;11.77;8.68;;;;;;;23.31;64.97;101319.13;5008826;28;20054;-79
2022/09/04 00:46:47;;;;;;;8.68;7.05;;;;;;;23.39;64.60;101313.53;5008762;28;20054;-79
2022/09/04 00:49:29;;;;;;;15.27;8.15;;;;;;;23.39;64.61;101316.22;4988665;28;20343;-79
2022/09/04 00:52:11;;;;;;;10.07;7.07;;;;;;;23.35;64.93;101312.25;4989529;28;20302;-79
2022/09/04 00:54:51;;;;;;;15.13;8.90;;;;;;;23.16;65.40;101293.03;4973294;28;20134;-80
2022/09/04 00:57:17;;;;;;;13.40;8.40;;;;;;;23.16;65.68;101306.56;4990463;28;20564;-79
2022/09/04 01:00:10;;;;;;;11.23;8.82;;;;;;;22.10;65.46;101125.53;4989374;28;20569;-79
2022/09/04 01:02:55;;;;;;;14.05;9.10;;;;;;;23.05;65.67;101293.59;4969242;28;20491;-79
2022/09/04 01:05:44;;;;;;;16.02;8.98;;;;;;;23.08;65.66;101301.31;4988094;28;20470;-79
2022/09/04 01:08:26;;;;;;;10.57;8.60;;;;;;;23.06;65.84;101305.25;4991279;28;20431;-80
2022/09/04 01:11:02;;;;;;;10.95;8.70;;;;;;;22.96;66.18;101303.75;4986920;28;20062;-80
2022/09/04 01:13:41;;;;;;;11.57;8.45;;;;;;;22.99;65.94;101299.84;4985538;28;20453;-80
2022/09/04 01:16:18;;;;;;;10.35;8.52;;;;;;;23.03;65.70;101306.50;4970068;28;20494;-80
2022/09/04 01:18:52;;;;;;;13.18;10.77;;;;;;;22.79;65.81;101267.22;4970833;28;20050;-79
2022/09/04 01:21:58;;;;;;;15.65;11.00;;;;;;;23.07;65.69;101313.19;4985035;28;20097;-80
2022/09/04 01:24:45;;;;;;;14.55;10.88;;;;;;;22.43;65.41;101205.22;4985268;28;20047;-81
2022/09/04 01:27:27;;;;;;;12.35;10.93;;;;;;;23.10;65.46;101328.19;4984987;28;20446;-79
2022/09/04 01:30:05;;;;;;;11.77;9.65;;;;;;;22.58;65.15;101241.09;4984985;28;20418;-79
2022/09/04 01:32:37;;;;;;;13.52;10.05;;;;;;;23.16;65.10;101341.78;4985142;28;20105;-79
2022/09/04 01:35:23;;;;;;;12.50;9.35;;;;;;;23.17;64.74;101346.16;4985388;28;20137;-79
2022/09/04 01:38:13;;;;;;;10.27;9.15;;;;;;;23.10;65.25;101347.16;4996933;28;20046;-79
2022/09/04 01:40:52;;;;;;;20.20;8.80;;;;;;;22.96;65.41;101333.53;4988490;28;20097;-79
2022/09/04 01:43:21;;;;;;;9.65;8.65;;;;;;;22.69;65.14;101294.63;4988246;28;20443;-80
2022/09/04 01:46:13;;;;;;;10.13;9.00;;;;;;;23.02;65.78;101350.88;4988163;28;20108;-79
2022/09/04 01:48:52;;;;;;;16.52;9.18;;;;;;;22.65;65.54;101296.09;4987955;28;20494;-80
2022/09/04 01:51:21;;;;;;;13.80;8.93;;;;;;;22.98;65.91;101357.72;4989552;28;20135;-79
2022/09/04 01:54:00;;;;;;;20.17;10.77;;;;;;;22.66;66.00;101321.28;5004089;28;20101;-79
2022/09/04 01:56:44;;;;;;;10.93;9.57;;;;;;;22.62;66.24;101315.41;5004624;28;20058;-79
2022/09/04 01:59:20;;;;;;;14.23;10.55;;;;;;;22.93;66.14;101361.00;4988012;28;20050;-79
2022/09/04 02:02:01;;;;;;;13.18;9.60;;;;;;;22.91;65.93;101357.63;4987936;28;20303;-78
2022/09/04 02:04:39;;;;;;;17.60;11.23;;;;;;;22.92;65.76;101351.22;4987999;28;20581;-79
2022/09/04 02:07:27;;;;;;;12.50;9.43;;;;;;;22.98;65.77;101363.13;5004454;28;20054;-79
2022/09/04 02:10:31;;;;;;;14.60;9.95;;;;;;;22.50;65.73;101289.94;4988879;28;20050;-79
2022/09/04 02:13:39;;;;;;;9.95;8.88;;;;;;;22.94;65.75;101361.84;4983597;28;20347;-79
2022/09/04 02:16:13;;;;;;;11.65;9.75;;;;;;;22.80;65.79;101347.41;5003685;28;20054;-80
2022/09/04 02:18:59;;;;;;;10.75;9.32;;;;;;;22.77;65.35;101323.44;4987894;28;20073;-81
2022/09/04 02:21:36;;;;;;;11.63;10.18;;;;;;;22.83;65.78;101345.09;5003813;28;20098;-77
2022/09/04 02:24:24;;;;;;;17.73;8.48;;;;;;;22.88;66.08;101352.63;5003731;28;20043;-79
2022/09/04 02:27:09;;;;;;;17.05;9.88;;;;;;;22.89;66.02;101353.47;5003910;28;20449;-78
2022/09/04 02:30:07;;;;;;;11.55;10.00;;;;;;;22.79;66.01;101337.59;4987561;28;20046;-79
2022/09/04 02:32:56;;;;;;;21.55;11.07;;;;;;;22.70;65.92;101323.41;5002754;28;20253;-80
2022/09/04 02:35:33;;;;;;;13.95;10.55;;;;;;;22.75;66.61;101348.00;5003398;28;20101;-80
2022/09/04 02:38:19;;;;;;;12.55;9.45;;;;;;;22.75;66.65;101342.56;4987446;28;20506;-80
2022/09/04 02:40:54;;;;;;;15.73;12.02;;;;;;;22.65;66.92;101338.53;4986723;28;20088;-81
2022/09/04 02:43:34;;;;;;;17.35;14.57;;;;;;;22.72;67.04;101340.28;4988462;28;20081;-81
2022/09/04 02:46:38;;;;;;;22.10;15.13;;;;;;;22.72;67.28;101342.13;5004226;28;20050;-80
2022/09/04 02:49:36;;;;;;;20.05;14.88;;;;;;;22.72;66.93;101342.97;4999116;28;20051;-78
2022/09/04 02:52:13;;;;;;;15.25;12.73;;;;;;;22.51;67.58;101318.69;4983818;28;20333;-79
2022/09/04 02:55:07;;;;;;;22.80;15.93;;;;;;;22.66;67.98;101346.47;4983808;28;20579;-77
2022/09/04 02:57:58;;;;;;;22.30;17.13;;;;;;;22.32;68.10;101288.59;4983862;28;20195;-79
2022/09/04 03:00:40;;;;;;;24.35;17.83;;;;;;;22.62;68.11;101334.34;4968633;28;20298;-80
2022/09/04 03:03:23;;;;;;;23.30;15.82;;;;;;;22.38;68.52;101301.34;4978834;28;20262;-79
2022/09/04 03:06:00;;;;;;;20.90;16.50;;;;;;;22.63;68.45;101344.16;4981668;28;20109;-79
2022/09/04 03:08:45;;;;;;;25.00;17.63;;;;;;;22.22;68.46;101280.00;4983002;28;20054;-79
2022/09/04 03:11:34;;;;;;;24.88;19.48;;;;;;;22.56;68.88;101354.09;4983728;28;20047;-80
2022/09/04 03:14:06;;;;;;;24.83;18.65;;;;;;;22.55;68.82;101355.13;4972789;28;20109;-79
2022/09/04 03:16:45;;;;;;;30.80;19.73;;;;;;;22.43;68.73;101345.88;4968867;28;20542;-80
2022/09/04 03:19:35;;;;;;;22.95;16.65;;;;;;;22.25;68.73;101317.44;4983279;28;20137;-80
2022/09/04 03:22:28;;;;;;;21.05;17.33;;;;;;;22.34;69.00;101350.59;4962374;28;20294;-80
2022/09/04 03:25:33;;;;;;;18.10;15.00;;;;;;;22.44;68.91;101367.31;4983320;28;20439;-80
2022/09/04 03:28:00;;;;;;;20.63;14.02;;;;;;;22.36;69.28;101370.19;4982867;28;20047;-80
2022/09/04 03:30:30;;;;;;;18.00;15.60;;;;;;;22.38;69.35;101382.50;4983187;28;20055;-80
2022/09/04 03:33:11;;;;;;;29.80;16.88;;;;;;;22.34;68.94;101370.38;4968353;28;20054;-80
2022/09/04 03:35:58;;;;;;;20.20;15.07;;;;;;;22.41;69.18;101383.97;4967042;28;20050;-80
2022/09/04 03:38:49;;;;;;;24.92;16.25;;;;;;;22.35;68.86;101372.03;4999706;28;20494;-80
2022/09/04 03:41:29;;;;;;;20.60;16.98;;;;;;;21.41;68.86;101206.50;5002203;28;20061;-80
2022/09/04 03:44:22;;;;;;;24.60;16.85;;;;;;;22.38;69.11;101378.94;4986093;28;20133;-80
2022/09/04 03:47:17;;;;;;;21.55;15.18;;;;;;;22.47;69.09;101393.16;4968310;28;20336;-80
2022/09/04 03:50:08;;;;;;;22.55;16.42;;;;;;;22.45;69.41;101400.63;4986274;28;20073;-80
2022/09/04 03:52:54;;;;;;;21.83;16.85;;;;;;;22.08;69.59;101352.00;5001846;28;20097;-80
2022/09/04 03:55:37;;;;;;;20.83;16.25;;;;;;;22.04;69.31;101344.47;4986337;28;20057;-79
2022/09/04 03:58:23;;;;;;;17.38;14.73;;;;;;;22.45;69.38;101400.63;5002592;28;20398;-80
2022/09/04 04:01:16;;;;;;;19.60;13.88;;;;;;;22.32;69.22;101391.38;5002110;28;20047;-80
2022/09/04 04:04:16;;;;;;;18.35;12.20;;;;;;;22.44;68.99;101404.38;4966563;28;20097;-78
2022/09/04 04:07:08;;;;;;;15.77;13.23;;;;;;;22.39;69.08;101411.19;4967051;28;20050;-79
2022/09/04 04:09:57;;;;;;;18.63;14.35;;;;;;;22.37;69.24;101410.56;4983062;28;20051;-80
2022/09/04 04:13:15;;;;;;;18.58;11.57;;;;;;;22.51;67.97;101406.09;4982528;28;20086;-80
2022/09/04 04:16:02;;;;;;;16.92;10.73;;;;;;;22.50;68.64;101415.25;4926635;29;20134;-79
2022/09/04 04:18:38;;;;;;;13.45;11.88;;;;;;;22.02;68.99;101346.56;4979225;28;20062;-80
2022/09/04 04:21:20;;;;;;;20.52;11.85;;;;;;;22.34;68.89;101413.66;4966392;28;20509;-79
2022/09/04 04:24:37;;;;;;;16.02;12.57;;;;;;;22.37;68.61;101413.25;4981086;28;20097;-78
2022/09/04 04:27:20;;;;;;;17.67;12.98;;;;;;;22.32;68.98;101421.13;4958023;28;20109;-79
2022/09/04 04:30:04;;;;;;;16.92;13.55;;;;;;;22.17;69.20;101406.81;4980702;28;20712;-80
2022/09/04 04:32:48;;;;;;;15.95;12.05;;;;;;;22.21;68.53;101389.22;4964796;28;20051;-80
2022/09/04 04:35:18;;;;;;;13.02;10.85;;;;;;;22.51;67.70;101422.34;4981042;28;20582;-80
2022/09/04 04:38:04;;;;;;;21.52;13.35;;;;;;;22.45;67.88;101428.50;4965382;28;20125;-79
2022/09/04 04:40:56;;;;;;;17.35;12.13;;;;;;;22.32;69.01;101442.75;4982369;28;20043;-79
2022/09/04 04:43:44;;;;;;;17.20;12.02;;;;;;;22.38;68.55;101433.88;4966363;28;20548;-80
2022/09/04 04:46:16;;;;;;;18.38;14.98;;;;;;;22.40;68.27;101442.66;4966331;28;20050;-80
2022/09/04 04:48:49;;;;;;;21.70;16.52;;;;;;;22.35;68.64;101439.66;4982023;28;20085;-80
2022/09/04 04:51:39;;;;;;;19.13;13.68;;;;;;;22.22;69.47;101439.53;4966116;28;20176;-79
2022/09/04 04:54:12;;;;;;;17.27;14.18;;;;;;;21.81;69.82;101387.94;4966591;28;20371;-80
2022/09/04 04:57:07;;;;;;;23.98;16.75;;;;;;;22.11;70.07;101442.72;4965951;28;20082;-81
2022/09/04 04:59:47;;;;;;;22.65;16.52;;;;;;;22.15;70.15;101444.00;4966494;28;20082;-79
2022/09/04 05:02:40;;;;;;;23.17;16.10;;;;;;;21.91;70.46;101415.47;4982159;28;20054;-79
2022/09/04 05:05:42;;;;;;;20.58;16.98;;;;;;;22.03;70.61;101440.97;5008401;28;20064;-80
2022/09/04 05:08:21;;;;;;;30.88;23.75;;;;;;;22.12;70.65;101461.47;5008721;28;20101;-79
2022/09/04 05:10:55;;;;;;;29.75;20.60;;;;;;;21.94;70.50;101437.56;5008951;28;20054;-79
2022/09/04 05:13:34;;;;;;;26.52;21.30;;;;;;;22.11;70.63;101449.00;4992726;28;20116;-80
2022/09/04 05:16:25;;;;;;;34.10;22.63;;;;;;;22.31;70.20;101465.44;5009648;28;20097;-80
2022/09/04 05:19:00;;;;;;;30.17;21.70;;;;;;;22.36;69.83;101463.00;5012338;28;20049;-81
2022/09/04 05:21:50;;;;;;;27.65;20.83;;;;;;;22.34;69.60;101445.28;5013396;28;20104;-79
2022/09/04 05:24:40;;;;;;;26.50;20.20;;;;;;;22.57;69.09;101469.41;5010428;28;20497;-79
2022/09/04 05:27:26;;;;;;;29.10;23.10;;;;;;;22.59;69.16;101470.06;4991635;28;20058;-81
2022/09/04 05:30:14;;;;;;;28.23;18.98;;;;;;;22.63;69.78;101467.81;5007424;28;20406;-80
2022/09/04 05:32:50;;;;;;;26.02;18.17;;;;;;;22.60;69.90;101464.47;5009590;28;20519;-79
2022/09/04 05:35:26;;;;;;;24.40;19.00;;;;;;;22.53;69.73;101444.63;5008257;28;20145;-80
2022/09/04 05:38:06;;;;;;;28.77;21.70;;;;;;;22.60;69.87;101452.81;5009133;28;20052;-80
2022/09/04 05:41:16;;;;;;;28.75;21.92;;;;;;;22.53;69.49;101435.69;5008191;28;20066;-80
2022/09/04 05:44:10;;;;;;;25.77;20.35;;;;;;;22.39;69.26;101400.38;4992387;28;20108;-80
2022/09/04 05:47:14;;;;;;;30.50;22.85;;;;;;;22.80;69.01;101451.09;5008696;28;20076;-79
2022/09/04 05:50:11;;;;;;;24.48;19.77;;;;;;;22.78;68.09;101427.97;5008625;28;20124;-80
2022/09/04 05:52:51;;;;;;;26.10;18.90;;;;;;;22.88;68.31;101443.84;5008311;28;20497;-81
2022/09/04 05:55:20;;;;;;;24.45;18.80;;;;;;;22.85;69.17;101445.09;5007473;28;20078;-79
2022/09/04 05:58:16;;;;;;;24.40;17.52;;;;;;;22.94;68.19;101454.75;5008055;28;20073;-80
2022/09/04 06:00:58;;;;;;;23.00;16.52;;;;;;;22.96;68.05;101435.56;4991586;28;20505;-80
2022/09/04 06:03:53;;;;;;;22.13;17.20;;;;;;;23.02;68.38;101456.47;5007170;28;20591;-80
2022/09/04 06:06:46;;;;;;;21.77;17.40;;;;;;;22.89;68.37;101429.25;4991209;28;20509;-80
2022/09/04 06:09:40;;;;;;;22.55;19.58;;;;;;;22.91;68.36;101436.16;5008580;28;20571;-80
2022/09/04 06:12:15;;;;;;;31.90;21.17;;;;;;;23.05;68.22;101456.06;5008578;28;20077;-80
2022/09/04 06:15:03;;;;;;;28.08;21.52;;;;;;;23.12;67.82;101462.38;4990971;28;20046;-80
2022/09/04 06:17:51;;;;;;;27.85;22.88;;;;;;;22.37;68.14;101345.63;5007174;28;20045;-79
2022/09/04 06:20:39;;;;;;;29.17;22.50;;;;;;;23.21;67.52;101469.31;4991273;28;20078;-80
2022/09/04 06:23:25;;;;;;;28.02;20.73;;;;;;;22.73;68.26;101409.59;5006859;28;20053;-77
2022/09/04 06:26:26;;;;;;;32.33;22.95;;;;;;;23.09;68.23;101473.63;5007477;28;20155;-80
2022/09/04 06:29:16;;;;;;;30.27;21.02;;;;;;;22.81;68.00;101416.72;5008122;28;20046;-79
2022/09/04 06:31:42;;;;;;;27.95;19.73;;;;;;;23.23;67.30;101475.38;5007094;28;20235;-80
2022/09/04 06:34:09;;;;;;;25.10;17.83;;;;;;;22.78;67.81;101420.66;5006976;28;20050;-80
2022/09/04 06:36:41;;;;;;;23.63;17.90;;;;;;;23.11;67.47;101479.66;5006712;28;20054;-80
2022/09/04 06:39:29;;;;;;;21.25;16.30;;;;;;;22.60;68.16;101410.34;5006913;28;20069;-80
2022/09/04 06:42:20;;;;;;;23.85;17.35;;;;;;;22.98;67.63;101472.28;4990625;28;20551;-80
2022/09/04 06:45:30;;;;;;;20.87;14.57;;;;;;;23.03;67.74;101498.75;5006582;28;20433;-80
2022/09/04 06:48:08;;;;;;;21.77;16.52;;;;;;;22.72;66.99;101428.72;4980269;28;20200;-80
2022/09/04 06:50:43;;;;;;;17.30;13.38;;;;;;;;;;5007750;28;20092;-79
2022/09/04 06:53:29;;;;;;;18.90;14.38;;;;;;;23.30;66.97;101498.94;5006578;28;20088;-80
2022/09/04 06:56:21;;;;;;;16.20;13.40;;;;;;;22.72;66.22;101397.09;5006543;28;20120;-79
2022/09/04 06:59:00;;;;;;;16.00;12.13;;;;;;;22.98;66.32;101449.78;4990467;28;20131;-79
2022/09/04 07:02:06;;;;;;;20.85;13.95;;;;;;;23.40;66.43;101513.81;5007625;28;20050;-80
2022/09/04 07:04:54;;;;;;;20.98;12.45;;;;;;;23.45;66.70;101521.34;4947050;28;20455;-79
2022/09/04 07:07:35;;;;;;;18.67;14.32;;;;;;;23.53;65.26;101518.47;4930543;29;20095;-78
2022/09/04 07:10:14;;;;;;;17.50;13.32;;;;;;;23.67;65.00;101536.50;4992065;28;20050;-79
2022/09/04 07:12:49;;;;;;;22.52;19.05;;;;;;;22.98;65.13;101430.81;5007569;28;20338;-80
2022/09/04 07:15:40;;;;;;;20.48;16.50;;;;;;;23.71;64.75;101546.91;5000544;28;20097;-79
2022/09/04 07:18:16;;;;;;;21.95;13.25;;;;;;;23.79;64.44;101560.38;5006906;28;20046;-80
2022/09/04 07:20:52;;;;;;;15.45;13.45;;;;;;;23.76;64.69;101556.16;5006670;28;20054;-81
2022/09/04 07:23:33;;;;;;;22.85;15.23;;;;;;;23.52;64.50;101514.09;4991781;28;20592;-81
2022/09/04 07:26:16;;;;;;;19.73;14.37;;;;;;;23.90;64.39;101573.31;4974236;28;20058;-78
2022/09/04 07:29:05;;;;;;;22.38;16.83;;;;;;;23.91;64.38;101575.03;4989839;28;20569;-80
2022/09/04 07:31:41;;;;;;;16.92;13.88;;;;;;;23.87;64.59;101576.44;4986103;28;20296;-80
2022/09/04 07:34:20;;;;;;;30.17;22.80;;;;;;;23.20;65.06;101464.91;4982902;28;20046;-80
2022/09/04 07:36:53;;;;;;;22.67;15.18;;;;;;;23.98;64.41;101565.03;5005992;28;20129;-80
2022/09/04 07:39:31;;;;;;;20.15;16.30;;;;;;;23.85;64.76;101549.53;5005821;28;20352;-79
2022/09/04 07:42:31;;;;;;;20.20;16.13;;;;;;;24.01;64.60;101570.06;4989783;28;20054;-79
2022/09/04 07:45:36;;;;;;;20.10;15.18;;;;;;;23.91;64.07;101547.91;4986626;28;20464;-79
2022/09/04 07:48:16;;;;;;;20.08;13.93;;;;;;;23.89;64.58;101544.56;4986179;28;20112;-80
2022/09/04 07:51:12;;;;;;;24.08;16.10;;;;;;;24.04;64.55;101566.94;4985983;28;20061;-80
2022/09/04 07:54:00;;;;;;;16.15;12.65;;;;;;;24.04;64.82;101575.06;4981772;28;20498;-80
2022/09/04 07:56:59;;;;;;;17.33;13.85;;;;;;;24.24;64.04;101568.88;4986169;28;20054;-81
2022/09/04 07:59:47;;;;;;;17.88;13.52;;;;;;;24.17;64.87;101573.44;4970155;28;20274;-79
2022/09/04 08:02:19;;;;;;;17.67;14.50;;;;;;;24.26;63.92;101572.22;4969731;28;20074;-80
2022/09/04 08:04:49;;;;;;;16.38;14.63;;;;;;;24.23;64.03;101568.06;4986056;28;20081;-80
2022/09/04 08:07:46;;;;;;;15.85;11.68;;;;;;;23.91;64.48;101515.38;4985758;28;20046;-80
2022/09/04 08:10:41;;;;;;;14.15;11.63;;;;;;;24.02;64.33;101512.03;4980993;28;20054;-80
2022/09/04 08:13:28;;;;;;;16.88;13.40;;;;;;;24.41;64.09;101578.31;4996389;28;20061;-81
2022/09/04 08:16:16;;;;;;;15.05;12.40;;;;;;;24.59;62.74;101590.50;5012363;28;20473;-80
2022/09/04 08:18:51;;;;;;;17.15;13.43;;;;;;;24.56;63.07;101594.47;4986056;28;20046;-80
2022/09/04 08:21:24;;;;;;;15.23;11.63;;;;;;;24.56;63.02;101590.94;5002465;28;20124;-80
2022/09/04 08:24:16;;;;;;;17.92;12.00;;;;;;;24.34;62.91;101550.34;4987292;28;20438;-79
2022/09/04 08:27:08;;;;;;;20.70;12.30;;;;;;;24.62;63.09;101588.22;4998674;28;20054;-80
2022/09/04 08:29:41;;;;;;;14.90;12.23;;;;;;;24.62;62.26;101569.22;4987005;28;20148;-79
2022/09/04 08:32:21;;;;;;;20.15;14.98;;;;;;;24.70;62.45;101601.59;4985614;28;20054;-81
2022/09/04 08:35:00;;;;;;;15.70;14.00;;;;;;;24.77;62.38;101601.63;4986334;28;20105;-81
2022/09/04 08:37:28;;;;;;;13.18;11.25;;;;;;;24.74;62.39;101585.75;4994604;28;20564;-81
2022/09/04 08:40:10;;;;;;;17.17;13.40;;;;;;;24.88;62.24;101598.31;4991665;28;20061;-80
2022/09/04 08:43:21;;;;;;;18.35;11.90;;;;;;;24.93;62.65;101603.13;4990085;28;20259;-81
2022/09/04 08:46:15;;;;;;;19.20;13.02;;;;;;;24.93;62.69;101590.38;4960160;28;20096;-80
2022/09/04 08:49:09;;;;;;;17.15;11.00;;;;;;;25.03;62.34;101592.69;4997030;28;20111;-81
2022/09/04 08:52:14;;;;;;;14.85;11.10;;;;;;;25.05;62.11;101592.44;4992131;28;20056;-80
2022/09/04 08:55:03;;;;;;;17.83;12.50;;;;;;;25.14;62.24;101591.19;4994295;28;20046;-81
2022/09/04 08:57:57;;;;;;;14.07;12.57;;;;;;;25.16;62.00;101591.84;5010234;28;20100;-81
2022/09/04 09:00:42;;;;;;;14.30;12.63;;;;;;;25.12;61.91;101590.56;5010124;28;20049;-80
2022/09/04 09:03:21;;;;;;;14.00;11.63;;;;;;;24.86;61.70;101528.94;4998841;28;20466;-81
2022/09/04 09:06:25;;;;;;;12.63;10.65;;;;;;;24.99;61.77;101533.53;4989092;28;20108;-80
2022/09/04 09:09:09;;;;;;;17.80;10.95;;;;;;;25.40;62.50;101584.13;4990167;28;20307;-80
2022/09/04 09:12:03;;;;;;;14.43;11.18;;;;;;;25.51;62.40;101578.03;4988741;28;20487;-80
2022/09/04 09:15:12;;;;;;;20.55;13.52;;;;;;;25.25;61.47;101530.84;4986800;28;20053;-80
2022/09/04 09:18:07;;;;;;;20.52;13.63;;;;;;;25.68;61.79;101589.28;4988766;28;20089;-81
2022/09/04 09:20:53;;;;;;;17.40;15.23;;;;;;;25.65;61.08;101563.34;4987753;28;20082;-81
2022/09/04 09:23:35;;;;;;;18.35;14.52;;;;;;;25.91;60.63;101583.41;4987691;28;20058;-81
2022/09/04 09:26:11;;;;;;;15.30;13.80;;;;;;;25.91;60.95;101594.28;4986176;28;20429;-80
2022/09/04 09:28:56;;;;;;;14.45;12.20;;;;;;;25.98;60.19;101598.66;4988309;28;20117;-80
2022/09/04 09:31:42;;;;;;;22.77;12.95;;;;;;;26.17;59.73;101591.47;4989390;28;20042;-81
2022/09/04 09:34:27;;;;;;;12.90;11.48;;;;;;;26.27;59.07;101596.44;4992880;28;20179;-81
2022/09/04 09:37:29;;;;;;;17.63;11.50;;;;;;;26.34;58.44;101586.38;4994674;28;20092;-82
2022/09/04 09:40:41;;;;;;;13.27;10.23;;;;;;;26.46;58.82;101594.69;4988606;28;20458;-81
2022/09/04 09:43:08;;;;;;;;;;;;;;;26.62;57.61;101598.78;4988756;28;20062;-81
2022/09/04 09:46:12;;;;;;;17.52;11.35;;;;;;;26.82;57.38;101595.94;4989229;28;20422;-81
2022/09/04 09:48:48;;;;;;;19.80;12.60;;;;;;;27.04;57.15;101591.81;4997046;28;20049;-80
2022/09/04 09:51:36;;;;;;;14.43;11.20;;;;;;;27.22;57.00;101587.50;5007587;28;20073;-82
2022/09/04 09:54:26;;;;;;;14.63;11.15;;;;;;;27.44;56.41;101580.56;5007777;28;20050;-82
2022/09/04 09:57:11;;;;;;;11.75;10.40;;;;;;;27.44;55.91;101566.09;4991753;28;20054;-80
2022/09/04 10:00:11;;;;;;;13.38;10.73;;;;;;;27.48;55.38;101581.78;5008229;28;20459;-81
2022/09/04 10:02:56;;;;;;;14.07;10.75;;;;;;;27.48;54.22;101589.97;5005599;28;20136;-80
2022/09/04 10:05:39;;;;;;;16.73;10.95;;;;;;;27.57;54.97;101578.75;5004666;28;20057;-80
2022/09/04 10:08:09;;;;;;;14.43;9.25;;;;;;;27.67;54.55;101576.34;4990869;28;20516;-82
2022/09/04 10:10:41;;;;;;;23.98;10.73;;;;;;;26.44;54.79;101384.44;5020815;28;20151;-81
2022/09/04 10:13:46;;;;;;;12.93;9.38;;;;;;;27.70;53.44;101570.44;5007633;28;20053;-81
2022/09/04 10:16:30;;;;;;;11.75;10.40;;;;;;;27.76;53.71;101572.25;5008365;28;20050;-81
2022/09/04 10:19:08;;;;;;;9.80;7.90;;;;;;;27.94;53.34;101562.41;4990717;28;20050;-81
2022/09/04 10:22:34;;;;;;;9.80;8.82;;;;;;;28.15;52.38;101552.94;5007276;28;20049;-81
2022/09/04 10:25:16;;;;;;;13.65;8.90;;;;;;;28.13;50.83;101518.50;4990249;28;20567;-81
2022/09/04 10:28:09;;;;;;;9.25;8.23;;;;;;;28.65;51.16;101578.06;5006145;28;20081;-82
2022/09/04 10:30:58;;;;;;;11.48;9.27;;;;;;;28.82;51.20;101574.69;5007824;28;20053;-81
2022/09/04 10:33:37;;;;;;;11.35;9.80;;;;;;;28.06;50.12;101438.63;5006312;28;20698;-82
2022/09/04 10:36:41;;;;;;;11.60;8.23;;;;;;;28.80;49.44;101519.44;5006274;28;20081;-80
2022/09/04 10:42:33;;;;;;;8.52;7.18;;;;;;;29.19;48.90;101570.69;4987438;28;20105;-81
2022/09/04 10:45:00;;;;;;;9.38;8.23;;;;;;;29.21;48.77;101566.91;4988512;28;20052;-81
2022/09/04 10:48:07;;;;;;;9.52;8.57;;;;;;;28.99;48.80;101578.38;4987202;28;20055;-82
2022/09/04 10:50:55;;;;;;;8.82;6.90;;;;;;;28.99;49.43;101575.66;4981121;28;20057;-81
2022/09/04 10:53:43;;;;;;;13.45;8.35;;;;;;;28.89;48.95;101569.94;5005590;28;20516;-82
2022/09/04 10:56:28;;;;;;;9.82;7.95;;;;;;;28.71;49.31;101547.06;4992800;28;20560;-81
2022/09/04 10:59:40;;;;;;;8.35;7.45;;;;;;;28.79;49.00;101558.72;5001666;28;20104;-82
2022/09/04 11:02:35;;;;;;;10.73;7.18;;;;;;;28.94;48.72;101562.69;4989646;28;20124;-80
2022/09/04 11:05:31;;;;;;;8.75;7.82;;;;;;;29.26;47.65;101561.56;5006501;28;20096;-81
2022/09/04 11:08:21;;;;;;;12.60;7.10;;;;;;;29.50;47.09;101554.16;4989774;28;20544;-82
2022/09/04 11:11:30;;;;;;;12.70;7.38;;;;;;;29.68;46.49;101556.78;4988823;28;20108;-82
2022/09/04 11:14:15;;;;;;;8.77;7.10;;;;;;;29.03;46.72;101494.84;4969953;28;20050;-82
2022/09/04 11:17:03;;;;;;;7.75;7.03;;;;;;;29.51;48.15;101545.72;4987972;28;20054;-82
2022/09/04 11:19:52;;;;;;;8.63;7.22;;;;;;;29.77;46.34;101544.38;4986713;28;20430;-82
2022/09/04 11:22:33;;;;;;;9.32;7.28;;;;;;;30.24;45.54;101559.81;4986367;28;20545;-82
2022/09/04 11:25:26;;;;;;;10.35;7.30;;;;;;;30.34;44.20;101527.19;4987748;28;20509;-82
2022/09/04 11:28:11;;;;;;;7.57;6.85;;;;;;;30.50;43.86;101513.75;4986269;28;20131;-81
2022/09/04 11:31:00;;;;;;;8.20;7.00;;;;;;;31.02;42.96;101554.66;5005747;28;20116;-82
2022/09/04 11:33:47;;;;;;;8.68;7.82;;;;;;;31.08;42.20;101553.66;5005100;28;20046;-83
2022/09/04 11:36:34;;;;;;;10.13;6.32;;;;;;;31.19;41.69;101558.22;5005853;28;20053;-81
2022/09/04 11:39:19;;;;;;;7.88;6.30;;;;;;;31.17;41.75;101557.66;4994978;28;20047;-83
2022/09/04 11:42:23;;;;;;;7.85;6.53;;;;;;;31.37;41.58;101551.63;5006134;28;20062;-83
2022/09/04 11:45:08;;;;;;;9.18;6.95;;;;;;;31.65;41.63;101536.94;5010808;28;20121;-83
2022/09/04 11:47:38;;;;;;;7.43;6.72;;;;;;;31.94;41.77;101544.97;4987045;28;20039;-83
2022/09/04 11:50:23;;;;;;;7.72;6.53;;;;;;;31.90;41.04;101489.75;5006107;28;20046;-82
2022/09/04 11:53:15;;;;;;;7.28;6.65;;;;;;;32.05;41.37;101488.28;5006586;28;20085;-81
2022/09/04 11:56:17;;;;;;;15.15;7.00;;;;;;;32.49;39.80;101535.72;5005737;28;20097;-83
2022/09/04 11:59:17;;;;;;;6.57;5.97;;;;;;;32.53;39.81;101525.88;5005509;28;20073;-80
2022/09/04 12:01:56;;;;;;;6.55;5.28;;;;;;;32.76;39.74;101527.41;5005173;28;20065;-80
2022/09/04 12:04:48;;;;;;;7.75;6.90;;;;;;;32.80;38.94;101546.97;4994209;28;20290;-82
2022/09/04 12:07:30;;;;;;;7.28;5.53;;;;;;;32.47;39.51;101524.13;4997458;28;20552;-82
2022/09/04 12:10:14;;;;;;;7.43;5.90;;;;;;;32.74;39.81;101542.53;5001837;28;20050;-82
2022/09/04 12:12:49;;;;;;;9.20;6.70;;;;;;;32.94;39.36;101530.84;4995624;28;20461;-82
2022/09/04 12:15:31;;;;;;;7.78;5.40;;;;;;;33.15;38.12;101526.34;5005285;28;20068;-82
2022/09/04 12:18:33;;;;;;;6.97;6.22;;;;;;;33.39;37.97;101532.28;5009889;28;20049;-81
2022/09/04 12:21:09;;;;;;;7.00;6.40;;;;;;;33.64;37.28;101517.81;4985835;28;20072;-82
2022/09/04 12:24:11;;;;;;;5.32;4.82;;;;;;;33.78;37.13;101524.47;5009605;28;20050;-83
2022/09/04 12:27:15;;;;;;;7.40;5.65;;;;;;;33.90;36.95;101521.50;5006019;28;20050;-83
2022/09/04 12:29:49;;;;;;;6.05;5.45;;;;;;;33.65;36.76;101471.88;4989604;28;20054;-82
2022/09/04 12:32:30;;;;;;;8.13;5.75;;;;;;;34.04;36.30;101521.81;5005692;28;20074;-82
2022/09/04 12:35:17;;;;;;;6.72;5.30;;;;;;;33.67;36.94;101503.53;4989836;28;20494;-83
2022/09/04 12:38:09;;;;;;;13.18;5.80;;;;;;;33.31;37.62;101492.34;5002107;28;20084;-83
2022/09/04 12:41:07;;;;;;;5.88;5.28;;;;;;;32.70;37.38;101453.44;4989332;28;20151;-83
2022/09/04 12:43:52;;;;;;;5.60;4.93;;;;;;;32.90;38.24;101526.97;4989755;28;20158;-83
2022/09/04 12:46:57;;;;;;;10.07;6.13;;;;;;;32.60;38.14;101519.31;4992193;28;20054;-81